Time;durP1;ratioP1;P1;durP2;ratioP2;P2;SDS_P1;SDS_P2;PMS_P1;PMS_P2;Temp;Humidity;BMP_temperature;BMP_pressure;BME280_temperature;BME280_humidity;BME280_pressure;Samples;Min_cycle;Max_cycle;Signal;HPM_P1;HPM_P2
2022/09/16 00:00:59;;;;;;;3.80;1.73;;;;;;;12.60;81.07;99969.50;5030981;28;20224;-85
2022/09/16 00:03:26;;;;;;;5.03;1.63;;;;;;;12.58;81.32;99972.28;5030722;28;20638;-84
2022/09/16 00:05:54;;;;;;;4.43;1.90;;;;;;;12.55;81.14;99977.88;5025935;28;20205;-83
2022/09/16 00:08:21;;;;;;;4.47;2.23;;;;;;;12.52;81.03;99962.13;5031662;28;20224;-83
2022/09/16 00:10:48;;;;;;;4.80;2.17;;;;;;;12.48;81.21;99964.22;5032663;28;20650;-83
2022/09/16 00:13:15;;;;;;;4.63;2.33;;;;;;;12.47;80.69;99969.66;5041560;28;20194;-83
2022/09/16 00:15:44;;;;;;;3.30;2.20;;;;;;;12.45;81.32;99967.13;5031373;28;20210;-84
2022/09/16 00:18:11;;;;;;;4.27;2.30;;;;;;;12.43;81.39;99963.72;5031289;28;20210;-84
2022/09/16 00:20:42;;;;;;;8.17;2.43;;;;;;;12.42;81.37;99972.72;5033035;28;20213;-82
2022/09/16 00:23:08;;;;;;;4.20;2.30;;;;;;;12.40;81.37;99969.31;5033972;28;20216;-82
2022/09/16 00:25:35;;;;;;;3.80;2.17;;;;;;;12.39;81.53;99974.78;5033534;28;20213;-82
2022/09/16 00:28:02;;;;;;;4.73;2.17;;;;;;;12.37;81.89;99974.03;5031541;28;20198;-82
2022/09/16 00:30:28;;;;;;;4.00;2.43;;;;;;;12.36;81.98;99969.72;5032488;28;20651;-82
2022/09/16 00:32:56;;;;;;;3.97;2.50;;;;;;;12.34;81.94;99968.97;5035664;28;20695;-83
2022/09/16 00:35:22;;;;;;;4.77;2.10;;;;;;;12.33;82.02;99975.28;5032662;28;20644;-83
2022/09/16 00:37:49;;;;;;;5.63;1.90;;;;;;;12.32;82.40;99978.94;5032659;28;20206;-82
2022/09/16 00:40:15;;;;;;;4.50;2.00;;;;;;;12.30;82.56;99972.88;5034027;28;20694;-82
2022/09/16 00:42:42;;;;;;;2.73;1.77;;;;;;;12.29;82.46;99966.69;5033088;28;20705;-83
2022/09/16 00:45:15;;;;;;;3.00;2.03;;;;;;;12.26;82.55;99969.59;5032948;28;20285;-82
2022/09/16 00:47:46;;;;;;;3.37;1.70;;;;;;;12.25;82.79;99977.72;5032205;28;20206;-82
2022/09/16 00:50:19;;;;;;;3.03;1.60;;;;;;;12.24;83.11;99968.00;5032653;28;20199;-83
2022/09/16 00:52:48;;;;;;;2.37;1.40;;;;;;;12.22;82.80;99975.28;5033286;28;20232;-82
2022/09/16 00:55:19;;;;;;;5.10;1.40;;;;;;;12.20;82.91;99972.75;5033349;28;20209;-82
2022/09/16 00:57:46;;;;;;;2.83;1.67;;;;;;;12.18;83.27;99981.88;5031100;28;20199;-83
2022/09/16 01:00:13;;;;;;;3.10;1.93;;;;;;;12.15;83.23;99975.81;5031312;28;20585;-82
2022/09/16 01:02:42;;;;;;;3.03;1.50;;;;;;;12.15;83.15;99966.97;5030960;28;20709;-82
2022/09/16 01:05:12;;;;;;;3.90;1.80;;;;;;;12.14;83.40;99965.25;5036852;28;20201;-82
2022/09/16 01:07:44;;;;;;;3.07;1.90;;;;;;;12.13;83.25;99974.22;5033634;28;20245;-82
2022/09/16 01:10:11;;;;;;;6.10;1.73;;;;;;;12.10;82.95;99963.81;5035609;28;20578;-82
2022/09/16 01:12:39;;;;;;;3.13;1.47;;;;;;;12.08;83.37;99965.75;5029933;28;20683;-82
2022/09/16 01:15:07;;;;;;;4.00;1.50;;;;;;;12.05;83.37;99966.81;5030239;28;20202;-82
2022/09/16 01:17:49;;;;;;;3.67;1.77;;;;;;;12.03;82.87;99970.59;5030124;28;20207;-82
2022/09/16 01:20:49;;;;;;;4.50;1.63;;;;;;;12.02;83.25;99979.56;5036768;28;20200;-82
2022/09/16 01:23:41;;;;;;;3.57;1.60;;;;;;;11.99;83.36;99972.69;5030719;28;20229;-83
2022/09/16 01:26:31;;;;;;;2.77;1.20;;;;;;;11.98;83.28;99970.13;5026248;28;20208;-83
2022/09/16 01:29:36;;;;;;;6.10;1.27;;;;;;;11.94;83.38;99971.34;5031175;28;20568;-84
2022/09/16 01:32:08;;;;;;;4.30;1.90;;;;;;;11.92;83.74;99967.94;4981094;28;20222;-82
2022/09/16 01:34:43;;;;;;;2.00;1.20;;;;;;;11.91;83.79;99974.25;5034763;28;20200;-82
2022/09/16 01:37:21;;;;;;;6.47;1.43;;;;;;;11.90;83.90;99967.22;5034559;28;20564;-82
2022/09/16 01:39:56;;;;;;;3.43;1.40;;;;;;;11.87;84.12;99970.97;5037539;28;20200;-83
2022/09/16 01:42:36;;;;;;;4.47;1.57;;;;;;;11.88;84.02;99974.47;5035488;28;20310;-82
2022/09/16 01:45:08;;;;;;;4.53;1.30;;;;;;;11.87;84.17;99975.44;5029424;28;20210;-83
2022/09/16 01:47:43;;;;;;;4.07;1.30;;;;;;;11.87;84.15;99965.63;5030232;28;20202;-82
2022/09/16 01:50:19;;;;;;;6.53;1.20;;;;;;;11.88;84.42;99975.34;5043585;28;20192;-82
2022/09/16 01:53:01;;;;;;;3.90;1.27;;;;;;;11.90;84.59;99970.72;5035154;28;20603;-82
2022/09/16 01:55:33;;;;;;;2.47;1.03;;;;;;;11.90;84.60;99965.41;5032160;28;20691;-83
2022/09/16 01:58:04;;;;;;;3.40;1.07;;;;;;;11.91;84.95;99977.75;5035020;28;20199;-82
2022/09/16 02:00:31;;;;;;;3.60;1.20;;;;;;;11.93;84.63;99980.31;5031322;28;20200;-82
2022/09/16 02:03:03;;;;;;;3.40;1.00;;;;;;;11.93;84.90;99978.50;5041889;28;20233;-83
2022/09/16 02:05:34;;;;;;;2.20;1.10;;;;;;;11.93;84.81;99981.16;5031330;28;20544;-83
2022/09/16 02:08:03;;;;;;;4.33;1.20;;;;;;;11.94;84.82;99966.84;5029487;28;20209;-82
2022/09/16 02:10:33;;;;;;;2.80;1.20;;;;;;;11.96;84.55;99969.41;5035286;28;20205;-83
2022/09/16 02:13:05;;;;;;;4.10;1.30;;;;;;;11.97;84.72;99965.75;5025192;28;20223;-82
2022/09/16 02:15:33;;;;;;;3.20;1.53;;;;;;;11.96;84.65;99964.91;5035085;28;20710;-84
2022/09/16 02:18:05;;;;;;;4.00;1.63;;;;;;;11.96;84.59;99964.91;5033385;28;20207;-82
2022/09/16 02:20:36;;;;;;;2.00;1.10;;;;;;;11.96;84.53;99962.25;5033652;28;20674;-82
2022/09/16 02:23:09;;;;;;;5.47;1.30;;;;;;;11.96;84.51;99962.25;5032928;28;20216;-82
2022/09/16 02:25:39;;;;;;;4.60;1.23;;;;;;;11.96;84.60;99959.56;5030796;28;20207;-82
2022/09/16 02:28:11;;;;;;;2.43;1.13;;;;;;;11.96;84.71;99948.91;5032517;28;20230;-82
2022/09/16 02:30:42;;;;;;;5.13;2.00;;;;;;;11.94;84.44;99956.19;5031064;28;20207;-82
2022/09/16 02:33:14;;;;;;;3.43;1.20;;;;;;;11.95;84.59;99963.22;5033969;28;20250;-82
2022/09/16 02:35:47;;;;;;;6.10;1.40;;;;;;;11.96;84.59;99953.38;5032748;28;20206;-82
2022/09/16 02:38:17;;;;;;;3.73;1.40;;;;;;;11.96;84.59;99962.25;5041328;28;20206;-82
2022/09/16 02:40:48;;;;;;;3.33;1.80;;;;;;;11.96;84.69;99956.06;5033281;28;20211;-83
2022/09/16 02:43:15;;;;;;;5.57;1.40;;;;;;;11.97;84.47;99955.09;5028634;28;20223;-84
2022/09/16 02:45:49;;;;;;;4.67;1.23;;;;;;;11.96;84.68;99959.56;5030348;28;20216;-82
2022/09/16 02:48:25;;;;;;;3.00;1.50;;;;;;;11.96;84.30;99958.72;5032663;28;20737;-82
2022/09/16 02:51:03;;;;;;;3.83;1.40;;;;;;;11.96;84.26;99953.38;5031892;28;20208;-82
2022/09/16 02:53:39;;;;;;;3.70;1.40;;;;;;;11.94;84.49;99953.50;5028808;28;20671;-82
2022/09/16 02:56:11;;;;;;;5.93;1.97;;;;;;;11.92;84.32;99947.44;5026857;28;20230;-82
2022/09/16 02:58:38;;;;;;;4.10;1.50;;;;;;;11.90;84.54;99944.03;5034274;28;20209;-81
2022/09/16 03:01:05;;;;;;;4.93;1.70;;;;;;;11.91;84.51;99950.22;5032999;28;20230;-82
2022/09/16 03:03:32;;;;;;;3.93;1.60;;;;;;;11.88;84.61;99948.66;5027978;28;20232;-82
2022/09/16 03:06:18;;;;;;;4.10;1.77;;;;;;;11.88;84.29;99947.81;5031477;28;20211;-82
2022/09/16 03:08:45;;;;;;;3.80;1.93;;;;;;;11.86;84.68;99947.06;5030241;28;20199;-82
2022/09/16 03:11:28;;;;;;;4.20;1.87;;;;;;;11.85;84.64;99948.03;5032597;28;20228;-83
2022/09/16 03:14:07;;;;;;;2.83;1.50;;;;;;;11.83;84.46;99949.00;5032884;28;20198;-82
2022/09/16 03:16:41;;;;;;;2.53;1.40;;;;;;;11.83;84.56;99950.81;5035223;28;20198;-82
2022/09/16 03:19:19;;;;;;;4.77;1.50;;;;;;;11.82;84.74;99947.31;5031695;28;20204;-82
2022/09/16 03:21:55;;;;;;;2.53;1.63;;;;;;;11.81;84.65;99955.47;5034016;28;20232;-82
2022/09/16 03:24:31;;;;;;;4.20;1.53;;;;;;;11.80;84.98;99948.44;5032622;28;20229;-82
2022/09/16 03:27:05;;;;;;;3.07;1.33;;;;;;;11.79;85.17;99958.25;5033079;28;20211;-83
2022/09/16 03:29:37;;;;;;;2.13;1.30;;;;;;;11.78;85.17;99953.88;5029680;28;20196;-84
2022/09/16 03:32:14;;;;;;;5.10;1.53;;;;;;;11.81;85.16;99958.13;5032064;28;20225;-83
2022/09/16 03:34:45;;;;;;;3.03;1.33;;;;;;;11.81;85.33;99963.47;5030018;28;20206;-82
2022/09/16 03:37:15;;;;;;;3.47;1.73;;;;;;;11.81;85.24;99953.66;5033297;28;20199;-81
2022/09/16 03:39:41;;;;;;;2.90;1.40;;;;;;;11.84;85.65;99960.53;5037234;28;20688;-82
2022/09/16 03:42:10;;;;;;;2.03;1.33;;;;;;;11.85;85.65;99951.56;5031935;28;20243;-82
2022/09/16 03:44:39;;;;;;;8.93;1.70;;;;;;;11.86;85.65;99947.91;5032056;28;20254;-82
2022/09/16 03:47:07;;;;;;;2.97;1.47;;;;;;;11.87;85.54;99954.97;5032108;28;20207;-82
2022/09/16 03:49:34;;;;;;;2.50;1.47;;;;;;;11.87;85.67;99938.94;5031640;28;20199;-82
2022/09/16 03:52:03;;;;;;;3.60;1.50;;;;;;;11.87;85.65;99948.78;5031951;28;20654;-82
2022/09/16 03:54:30;;;;;;;3.53;1.90;;;;;;;11.87;85.65;99940.78;5032044;28;20204;-82
2022/09/16 03:56:56;;;;;;;4.63;1.80;;;;;;;11.89;85.58;99930.81;5031969;28;20225;-82
2022/09/16 03:59:23;;;;;;;3.27;1.60;;;;;;;11.89;85.69;99941.50;5033104;28;20215;-82
2022/09/16 04:01:49;;;;;;;3.80;1.60;;;;;;;11.88;85.46;99932.66;5031071;28;20231;-83
2022/09/16 04:04:16;;;;;;;2.90;1.63;;;;;;;11.90;85.66;99937.84;5038898;28;20222;-86
2022/09/16 04:06:46;;;;;;;4.13;1.80;;;;;;;11.90;85.35;99937.84;5048719;28;20263;-87
2022/09/16 04:12:06;;;;;;;4.97;1.93;;;;;;;11.91;85.43;99937.75;5048942;28;20211;-86
2022/09/16 04:14:33;;;;;;;5.57;2.13;;;;;;;11.91;85.35;99937.75;5050275;28;20199;-86
2022/09/16 04:17:00;;;;;;;5.80;2.03;;;;;;;11.92;85.34;99933.25;5053362;28;20202;-86
2022/09/16 04:19:26;;;;;;;2.97;1.90;;;;;;;11.91;85.56;99934.22;5049211;28;20206;-86
2022/09/16 04:21:53;;;;;;;4.40;2.20;;;;;;;11.91;85.46;99931.56;5049312;28;20274;-86
2022/09/16 04:24:21;;;;;;;4.47;2.03;;;;;;;11.92;85.77;99936.78;5046713;28;20290;-86
2022/09/16 04:26:47;;;;;;;6.63;2.23;;;;;;;11.91;85.62;99939.56;5049452;28;20202;-85
2022/09/16 04:29:14;;;;;;;5.37;2.17;;;;;;;11.92;85.47;99935.91;5056466;28;20204;-86
2022/09/16 04:31:41;;;;;;;4.17;2.37;;;;;;;11.93;85.28;99932.28;5050992;28;20256;-85
2022/09/16 04:34:07;;;;;;;4.37;2.30;;;;;;;11.93;85.43;99927.78;5050528;28;20486;-85
2022/09/16 04:36:34;;;;;;;5.17;2.50;;;;;;;11.93;85.67;99922.47;5051636;28;20212;-84
2022/09/16 04:39:00;;;;;;;3.53;2.63;;;;;;;11.94;85.61;99931.31;5049799;28;20204;-86
2022/09/16 04:41:28;;;;;;;5.87;2.10;;;;;;;11.95;85.62;99925.00;5049600;28;20233;-86
2022/09/16 04:43:56;;;;;;;5.47;2.20;;;;;;;11.95;85.40;99930.34;5048768;28;20232;-85
2022/09/16 04:46:24;;;;;;;2.30;2.10;;;;;;;11.94;85.47;99925.97;5050102;28;20240;-84
2022/09/16 04:48:51;;;;;;;4.07;2.20;;;;;;;11.95;85.10;99930.34;5050079;28;20194;-85
2022/09/16 04:51:19;;;;;;;2.70;1.80;;;;;;;11.95;85.37;99931.19;5048607;28;20250;-86
2022/09/16 04:53:46;;;;;;;4.97;2.10;;;;;;;11.95;85.26;99931.19;5050009;28;20534;-86
2022/09/16 04:56:16;;;;;;;3.27;1.90;;;;;;;11.97;85.15;99923.06;5047697;28;20210;-86
2022/09/16 04:58:44;;;;;;;4.70;2.10;;;;;;;11.96;85.08;99932.03;5047201;28;20223;-85
2022/09/16 05:01:13;;;;;;;2.50;1.80;;;;;;;11.96;85.36;99922.22;5045304;28;20240;-86
2022/09/16 05:03:40;;;;;;;3.10;1.73;;;;;;;11.96;85.18;99924.88;5048835;28;20226;-87
2022/09/16 05:06:09;;;;;;;3.23;2.00;;;;;;;11.96;85.21;99924.88;5046898;28;20208;-87
2022/09/16 05:08:36;;;;;;;5.30;1.97;;;;;;;11.95;85.06;99923.19;5046027;28;20206;-86
2022/09/16 05:11:05;;;;;;;2.07;1.60;;;;;;;11.95;85.34;99931.19;5047441;28;20224;-85
2022/09/16 05:13:31;;;;;;;2.77;1.77;;;;;;;11.94;85.54;99926.81;5050654;28;20203;-85
2022/09/16 05:16:03;;;;;;;2.13;1.50;;;;;;;11.95;85.28;99935.69;5051638;28;20213;-85
2022/09/16 05:18:30;;;;;;;7.73;2.07;;;;;;;11.94;85.45;99924.16;5053453;28;20209;-86
2022/09/16 05:20:58;;;;;;;5.23;1.43;;;;;;;11.96;85.44;99932.03;5050484;28;20212;-86
2022/09/16 05:23:25;;;;;;;2.40;1.70;;;;;;;11.96;85.16;99934.72;5051752;28;20198;-86
2022/09/16 05:25:52;;;;;;;2.70;1.67;;;;;;;11.98;85.28;99932.78;5055551;28;20261;-85
2022/09/16 05:28:19;;;;;;;3.17;1.70;;;;;;;11.99;85.16;99931.81;5050840;28;20203;-86
2022/09/16 05:30:46;;;;;;;3.70;1.50;;;;;;;12.00;85.43;99926.31;5051245;28;20216;-85
2022/09/16 05:33:14;;;;;;;4.77;1.90;;;;;;;11.99;85.22;99932.66;5052307;28;20208;-86
2022/09/16 05:35:40;;;;;;;2.50;1.20;;;;;;;12.02;85.30;99934.19;5052381;28;20233;-85
2022/09/16 05:38:07;;;;;;;6.53;1.77;;;;;;;12.04;85.03;99933.09;5052702;28;20250;-85
2022/09/16 05:40:34;;;;;;;2.93;1.50;;;;;;;12.04;85.38;99924.25;5051565;28;20203;-86
2022/09/16 05:43:00;;;;;;;4.97;1.73;;;;;;;12.06;85.26;99930.31;5051574;28;20291;-86
2022/09/16 05:45:27;;;;;;;5.00;1.53;;;;;;;12.09;85.23;99932.75;5052623;28;20211;-86
2022/09/16 05:47:53;;;;;;;3.83;1.60;;;;;;;12.09;84.87;99935.41;5053376;28;20677;-86
2022/09/16 05:50:21;;;;;;;5.27;2.20;;;;;;;12.10;84.86;99934.44;5053859;28;20200;-86
2022/09/16 05:52:47;;;;;;;4.30;1.97;;;;;;;12.11;84.76;99931.66;5057642;28;20221;-87
2022/09/16 05:55:14;;;;;;;2.43;1.93;;;;;;;12.14;84.75;99935.91;5051609;28;20194;-87
2022/09/16 05:57:40;;;;;;;3.23;2.00;;;;;;;12.15;84.63;99937.59;5052502;28;20197;-86
2022/09/16 06:00:08;;;;;;;2.40;2.07;;;;;;;12.16;84.83;99940.13;5048440;28;20191;-85
2022/09/16 06:02:35;;;;;;;2.97;2.23;;;;;;;12.16;84.88;99937.47;5052263;28;20216;-86
2022/09/16 06:05:02;;;;;;;3.27;1.90;;;;;;;12.20;84.77;99951.38;5053084;28;20243;-85
2022/09/16 06:07:29;;;;;;;4.23;2.07;;;;;;;12.23;84.64;99951.16;5053130;28;20188;-85
2022/09/16 06:09:56;;;;;;;3.40;1.57;;;;;;;12.26;84.91;99944.72;5052333;28;20215;-86
2022/09/16 06:12:23;;;;;;;4.97;1.90;;;;;;;12.28;84.61;99948.97;5054115;28;20300;-87
2022/09/16 06:14:49;;;;;;;4.13;2.10;;;;;;;12.30;84.39;99939.00;5055001;28;20213;-86
2022/09/16 06:17:16;;;;;;;2.97;1.47;;;;;;;12.32;84.24;99938.88;5053629;28;20212;-86
2022/09/16 06:19:43;;;;;;;4.03;1.77;;;;;;;12.34;84.34;99937.78;5054251;28;20196;-86
2022/09/16 06:22:09;;;;;;;5.30;1.77;;;;;;;12.35;84.28;99933.31;5057203;28;20289;-86
2022/09/16 06:24:37;;;;;;;2.73;1.90;;;;;;;12.38;84.19;99949.03;5049042;28;20323;-86
2022/09/16 06:27:04;;;;;;;6.17;1.77;;;;;;;12.41;84.10;99943.47;5052333;28;20265;-86
2022/09/16 06:29:31;;;;;;;4.80;1.73;;;;;;;12.42;83.94;99939.81;5051283;28;20209;-87
2022/09/16 06:31:57;;;;;;;2.70;1.70;;;;;;;12.44;83.67;99953.91;5048185;28;20290;-86
2022/09/16 06:34:25;;;;;;;4.67;1.93;;;;;;;12.47;83.33;99946.47;5049742;28;20697;-85
2022/09/16 06:36:52;;;;;;;5.47;1.80;;;;;;;12.49;83.13;99941.03;5048084;28;20220;-87
2022/09/16 06:39:18;;;;;;;2.93;2.10;;;;;;;12.51;83.31;99944.41;5053291;28;20207;-86
2022/09/16 06:41:46;;;;;;;3.07;1.53;;;;;;;12.54;82.78;99937.97;5050547;28;20222;-86
2022/09/16 06:44:12;;;;;;;4.03;1.93;;;;;;;12.55;82.61;99936.97;5052513;28;20210;-87
2022/09/16 06:46:41;;;;;;;4.30;1.70;;;;;;;12.58;82.31;99934.91;5053469;28;20221;-87
2022/09/16 06:49:09;;;;;;;5.23;1.60;;;;;;;12.64;82.20;99920.19;5053784;28;20205;-87
2022/09/16 06:51:36;;;;;;;3.33;1.53;;;;;;;12.69;82.19;99923.34;5056297;28;20206;-86
2022/09/16 06:54:07;;;;;;;3.37;1.70;;;;;;;12.76;82.02;99932.53;5052922;28;20222;-86
2022/09/16 06:56:35;;;;;;;3.90;1.67;;;;;;;12.82;81.41;99932.88;5054916;28;20250;-87
2022/09/16 06:59:03;;;;;;;3.07;1.20;;;;;;;12.92;80.98;99926.72;5049639;28;20202;-87
2022/09/16 07:01:31;;;;;;;5.37;1.90;;;;;;;13.00;80.51;99930.47;5055362;28;20292;-86
2022/09/16 07:04:01;;;;;;;4.10;1.50;;;;;;;13.11;79.97;99932.22;5052806;28;20206;-86
2022/09/16 07:06:29;;;;;;;4.07;1.30;;;;;;;13.19;79.15;99930.63;5047922;28;20217;-87
2022/09/16 07:08:56;;;;;;;2.43;1.20;;;;;;;13.28;78.56;99922.78;5052238;28;20270;-86
2022/09/16 07:11:23;;;;;;;2.77;1.00;;;;;;;13.35;77.89;99923.97;5053690;28;20282;-87
2022/09/16 07:13:51;;;;;;;3.13;1.10;;;;;;;13.42;77.21;99930.47;5052158;28;20291;-86
2022/09/16 07:16:21;;;;;;;2.43;1.00;;;;;;;13.45;76.18;99931.03;5047443;28;20206;-85
2022/09/16 07:18:48;;;;;;;1.67;1.10;;;;;;;13.50;76.05;99927.97;5046958;28;20277;-86
2022/09/16 07:21:17;;;;;;;3.83;1.10;;;;;;;13.50;75.57;99926.16;5043888;28;20312;-86
2022/09/16 07:23:45;;;;;;;4.67;1.30;;;;;;;13.51;74.80;99927.00;5048450;28;20210;-85
2022/09/16 07:26:15;;;;;;;3.67;1.30;;;;;;;13.51;74.41;99935.88;5048993;28;20238;-86
2022/09/16 07:28:45;;;;;;;1.50;1.40;;;;;;;13.54;74.33;99937.44;5051311;28;20270;-86
2022/09/16 07:31:14;;;;;;;3.77;1.50;;;;;;;13.61;74.46;99927.06;5044460;28;20260;-86
2022/09/16 07:33:44;;;;;;;2.50;1.07;;;;;;;13.69;73.73;99928.06;5051028;28;20214;-87
2022/09/16 07:36:13;;;;;;;4.00;1.20;;;;;;;13.81;73.87;99936.84;5042608;28;20449;-85
2022/09/16 07:38:40;;;;;;;4.23;1.23;;;;;;;13.92;72.99;99927.88;5057635;28;20210;-86
2022/09/16 07:41:10;;;;;;;2.87;1.43;;;;;;;14.00;72.59;99936.91;5048335;28;20287;-86
2022/09/16 07:43:37;;;;;;;3.17;1.27;;;;;;;14.08;72.01;99938.91;5048112;28;20222;-85
2022/09/16 07:46:04;;;;;;;3.83;1.20;;;;;;;14.16;71.76;99939.06;5046381;28;20252;-86
2022/09/16 07:48:32;;;;;;;3.27;1.20;;;;;;;14.23;70.96;99940.22;5048333;28;20237;-86
2022/09/16 07:51:02;;;;;;;1.00;0.97;;;;;;;14.30;70.38;99935.16;5043314;28;20596;-84
2022/09/16 07:53:30;;;;;;;5.17;1.40;;;;;;;14.40;70.69;99946.72;5028515;28;20570;-84
2022/09/16 07:56:00;;;;;;;2.47;1.10;;;;;;;14.49;69.84;99938.75;5032109;28;20583;-83
2022/09/16 07:58:27;;;;;;;1.17;0.93;;;;;;;14.60;69.42;99937.78;5035716;28;20200;-84
2022/09/16 08:00:53;;;;;;;4.33;1.20;;;;;;;14.65;68.96;99935.53;5032430;28;20213;-84
2022/09/16 08:03:20;;;;;;;4.20;1.00;;;;;;;14.72;68.54;99941.16;5033403;28;20212;-82
2022/09/16 08:05:46;;;;;;;2.50;0.80;;;;;;;14.79;68.45;99943.13;5030886;28;20593;-82
2022/09/16 08:08:14;;;;;;;3.20;1.23;;;;;;;14.87;67.36;99937.91;5030806;28;20558;-83
2022/09/16 08:10:41;;;;;;;2.03;0.80;;;;;;;14.92;66.70;99945.53;5030815;28;20272;-82
2022/09/16 08:13:08;;;;;;;3.30;1.07;;;;;;;14.99;66.82;99927.88;5033749;28;20207;-84
2022/09/16 08:15:34;;;;;;;2.20;1.00;;;;;;;15.09;66.48;99939.44;5029700;28;20208;-83
2022/09/16 08:18:01;;;;;;;3.37;1.00;;;;;;;15.18;66.21;99945.78;5029812;28;20202;-83
2022/09/16 08:20:28;;;;;;;3.00;1.20;;;;;;;15.29;65.71;99948.31;5034314;28;20207;-83
2022/09/16 08:22:54;;;;;;;2.43;1.10;;;;;;;15.39;64.79;99945.63;5027997;28;20227;-83
2022/09/16 08:25:22;;;;;;;8.20;1.00;;;;;;;15.44;64.15;99946.84;5027753;28;20235;-84
2022/09/16 08:27:48;;;;;;;3.93;0.80;;;;;;;15.50;63.96;99940.06;5037412;28;20201;-83
2022/09/16 08:30:15;;;;;;;3.60;0.83;;;;;;;15.57;63.32;99941.22;5028565;28;20199;-83
2022/09/16 08:32:42;;;;;;;3.60;1.10;;;;;;;15.67;63.43;99941.16;5032871;28;20227;-82
2022/09/16 08:35:08;;;;;;;3.80;0.77;;;;;;;15.78;62.91;99943.66;5037699;28;20215;-83
2022/09/16 08:37:35;;;;;;;7.07;1.67;;;;;;;15.88;62.43;99944.47;5033948;28;20231;-83
2022/09/16 08:40:02;;;;;;;16.27;2.80;;;;;;;15.94;61.71;99933.16;5030746;28;20250;-83
2022/09/16 08:42:39;;;;;;;3.53;0.80;;;;;;;16.03;61.59;99932.25;5036368;28;20277;-84
2022/09/16 08:45:25;;;;;;;7.73;0.83;;;;;;;16.11;61.50;99940.41;5028326;28;20220;-84
2022/09/16 08:48:19;;;;;;;5.97;1.10;;;;;;;16.19;60.90;99943.19;5031651;28;20211;-83
2022/09/16 08:50:48;;;;;;;2.30;0.73;;;;;;;16.28;60.29;99931.56;5029578;28;20212;-83
2022/09/16 08:53:25;;;;;;;5.23;1.10;;;;;;;16.36;59.85;99933.47;5032403;28;20204;-83
2022/09/16 08:55:52;;;;;;;4.33;1.10;;;;;;;16.43;58.94;99944.47;5032216;28;20591;-83
2022/09/16 08:58:22;;;;;;;3.50;0.60;;;;;;;16.52;58.80;99932.78;5027823;28;20225;-84
2022/09/16 09:00:54;;;;;;;2.13;0.70;;;;;;;16.59;57.74;99940.09;5024293;28;20713;-83
2022/09/16 09:03:33;;;;;;;3.53;0.80;;;;;;;16.60;56.74;99941.78;5030886;28;20764;-83
2022/09/16 09:06:04;;;;;;;2.50;0.80;;;;;;;16.64;56.31;99937.84;5029423;28;20442;-82
2022/09/16 09:08:39;;;;;;;4.03;0.90;;;;;;;16.76;56.15;99940.28;5027757;28;20202;-82
2022/09/16 09:11:13;;;;;;;3.73;0.93;;;;;;;16.86;55.78;99941.03;5031062;28;20628;-83
2022/09/16 09:13:58;;;;;;;2.33;0.60;;;;;;;16.93;55.26;99934.91;5034240;28;20210;-83
2022/09/16 09:16:36;;;;;;;8.10;1.10;;;;;;;17.02;55.12;99933.94;5027051;28;20191;-82
2022/09/16 09:19:16;;;;;;;3.97;0.80;;;;;;;17.12;54.85;99941.94;5029499;28;20280;-83
2022/09/16 09:21:50;;;;;;;4.90;0.90;;;;;;;17.23;54.34;99943.53;5027051;28;20245;-83
2022/09/16 09:24:32;;;;;;;2.80;0.70;;;;;;;17.33;54.02;99938.91;5034361;28;20221;-83
2022/09/16 09:27:04;;;;;;;4.67;1.00;;;;;;;17.40;53.34;99931.03;5034005;28;20203;-82
2022/09/16 09:30:02;;;;;;;3.57;0.90;;;;;;;17.46;53.38;99933.09;5029035;28;20780;-83
2022/09/16 09:32:46;;;;;;;43.93;3.37;;;;;;;17.53;53.05;99939.56;5031274;28;20234;-82
2022/09/16 09:35:22;;;;;;;7.10;1.03;;;;;;;17.62;52.65;99939.44;5029033;28;20286;-83
2022/09/16 09:38:05;;;;;;;6.60;0.93;;;;;;;17.71;52.26;99937.69;5030773;28;20206;-83
2022/09/16 09:40:37;;;;;;;3.73;0.90;;;;;;;17.73;51.09;99935.66;5028808;28;20208;-82
2022/09/16 09:43:12;;;;;;;5.40;1.20;;;;;;;17.66;50.68;99937.31;5033910;28;20228;-83
2022/09/16 09:45:47;;;;;;;4.73;0.77;;;;;;;17.59;50.46;99930.81;5027240;28;20300;-83
2022/09/16 09:48:19;;;;;;;8.73;1.20;;;;;;;17.57;50.29;99916.66;5028773;28;20204;-84
2022/09/16 09:50:48;;;;;;;3.97;0.77;;;;;;;17.58;49.99;99921.91;5031262;28;20669;-83
2022/09/16 09:53:20;;;;;;;3.67;0.80;;;;;;;17.51;49.65;99920.03;5033503;28;20208;-83
2022/09/16 09:55:47;;;;;;;5.70;0.80;;;;;;;17.44;49.40;99918.94;5030906;28;20230;-82
2022/09/16 09:58:26;;;;;;;5.00;1.00;;;;;;;17.44;49.74;99909.03;5031256;28;20662;-82
2022/09/16 10:00:56;;;;;;;3.10;0.73;;;;;;;17.54;50.27;99908.94;5033648;28;20203;-82
2022/09/16 10:03:23;;;;;;;5.63;1.10;;;;;;;17.64;49.81;99909.69;5030642;28;20248;-82
2022/09/16 10:05:50;;;;;;;7.07;0.93;;;;;;;17.72;49.21;99904.34;5032335;28;20225;-82
2022/09/16 10:08:26;;;;;;;4.43;0.70;;;;;;;17.79;49.07;99902.69;5037008;28;20670;-82
2022/09/16 10:10:55;;;;;;;3.73;0.70;;;;;;;17.83;47.84;99893.28;5032195;28;20579;-82
2022/09/16 10:13:24;;;;;;;7.93;1.13;;;;;;;17.78;47.31;99902.84;5036105;28;20573;-82
2022/09/16 10:16:06;;;;;;;9.23;1.40;;;;;;;17.64;47.71;99902.44;5031069;28;20287;-82
2022/09/16 10:18:33;;;;;;;4.90;0.80;;;;;;;17.56;48.63;99905.06;5030616;28;20568;-82
2022/09/16 10:21:04;;;;;;;4.70;1.00;;;;;;;17.60;49.27;99905.59;5032301;28;20211;-82
2022/09/16 10:23:31;;;;;;;4.30;0.77;;;;;;;17.63;48.92;99908.81;5031536;28;20278;-82
2022/09/16 10:26:07;;;;;;;4.20;1.10;;;;;;;17.58;48.20;99905.75;5033737;28;22079;-81
2022/09/16 10:28:34;;;;;;;13.60;2.17;;;;;;;17.54;48.10;99898.16;5029481;28;20205;-82
2022/09/16 10:31:02;;;;;;;21.90;2.50;;;;;;;17.53;48.31;99889.25;5035849;28;20226;-82
2022/09/16 10:33:32;;;;;;;7.23;1.37;;;;;;;17.57;48.83;99893.28;5032212;28;20202;-82
2022/09/16 10:36:03;;;;;;;4.53;0.83;;;;;;;17.67;48.72;99887.81;5034472;28;20203;-82
2022/09/16 10:38:37;;;;;;;10.80;1.23;;;;;;;17.74;48.09;99888.00;5035339;28;20203;-83
2022/09/16 10:41:08;;;;;;;14.03;1.57;;;;;;;17.81;48.10;99899.84;5035158;28;20223;-82
2022/09/16 10:43:38;;;;;;;4.37;0.90;;;;;;;17.83;47.56;99887.06;5026608;28;20234;-83
2022/09/16 10:46:07;;;;;;;5.33;1.13;;;;;;;17.89;47.99;99891.81;5031722;28;20241;-82
2022/09/16 10:48:35;;;;;;;5.37;1.00;;;;;;;17.97;48.01;99883.72;5033775;28;20211;-82
2022/09/16 10:51:04;;;;;;;4.03;1.13;;;;;;;18.00;47.48;99884.25;5027791;28;20227;-82
2022/09/16 10:53:32;;;;;;;7.33;0.90;;;;;;;18.06;47.53;99890.00;5028615;28;20212;-82
2022/09/16 10:56:01;;;;;;;6.23;0.83;;;;;;;18.08;47.18;99888.84;5032563;28;20678;-82
2022/09/16 10:58:28;;;;;;;4.00;1.40;;;;;;;18.05;46.89;99886.47;5032615;28;20290;-82
2022/09/16 11:01:07;;;;;;;2.13;0.60;;;;;;;17.96;46.36;99880.19;5032477;28;20208;-82
2022/09/16 11:04:06;;;;;;;3.53;0.80;;;;;;;17.85;46.49;99877.81;5031966;28;20204;-82
2022/09/16 11:06:45;;;;;;;3.67;0.70;;;;;;;17.81;46.37;99879.13;5031715;28;20695;-83
2022/09/16 11:09:19;;;;;;;3.53;0.70;;;;;;;17.79;45.42;99878.44;5032418;28;20222;-83
2022/09/16 11:11:58;;;;;;;3.60;0.97;;;;;;;17.74;44.30;99879.94;5037139;28;20251;-81
2022/09/16 11:14:38;;;;;;;2.87;0.73;;;;;;;17.70;44.25;99871.34;5031001;28;20198;-83
2022/09/16 11:17:20;;;;;;;3.77;0.63;;;;;;;17.75;44.32;99884.31;5034661;28;20202;-83
2022/09/16 11:20:06;;;;;;;3.33;0.90;;;;;;;17.71;43.45;99867.66;5031739;28;20683;-82
2022/09/16 11:22:41;;;;;;;3.10;0.70;;;;;;;17.72;43.46;99866.66;5031252;28;20388;-82
2022/09/16 11:25:34;;;;;;;4.07;0.90;;;;;;;17.77;43.70;99866.13;5030537;28;20222;-83
2022/09/16 11:28:17;;;;;;;4.00;1.17;;;;;;;17.78;42.93;99865.97;5031287;28;20693;-82
2022/09/16 11:30:54;;;;;;;2.43;0.50;;;;;;;17.77;43.26;99867.00;5029655;28;20291;-83
2022/09/16 11:33:28;;;;;;;2.43;0.77;;;;;;;17.77;43.60;99855.38;5034543;28;20194;-83
2022/09/16 11:36:16;;;;;;;4.07;0.90;;;;;;;17.80;43.86;99871.22;5031224;28;20881;-83
2022/09/16 11:38:53;;;;;;;2.83;0.40;;;;;;;17.81;43.37;99854.03;5031386;28;20569;-83
2022/09/16 11:41:27;;;;;;;3.17;0.70;;;;;;;17.81;43.53;99852.19;5031675;28;20219;-84
2022/09/16 11:44:18;;;;;;;2.97;0.80;;;;;;;17.89;43.82;99841.47;5033841;28;20197;-82
2022/09/16 11:46:58;;;;;;;3.90;1.37;;;;;;;17.97;44.06;99851.41;5028643;28;20219;-83
2022/09/16 11:49:53;;;;;;;5.80;1.07;;;;;;;18.06;43.82;99838.81;5024450;28;20235;-84
2022/09/16 11:52:33;;;;;;;2.90;0.90;;;;;;;18.13;43.49;99845.22;5033382;28;20228;-82
2022/09/16 11:55:17;;;;;;;4.23;1.00;;;;;;;18.16;43.24;99847.56;5033113;28;20207;-83